createdAt,value
2022-12-14T00:02:02.771Z,100.00
2022-12-14T00:04:31.348Z,100.00
2022-12-14T00:07:00.020Z,100.00
2022-12-14T00:09:30.077Z,100.00
2022-12-14T00:11:58.346Z,100.00
2022-12-14T00:14:26.757Z,100.00
2022-12-14T00:16:55.035Z,100.00
2022-12-14T00:19:23.284Z,100.00
2022-12-14T00:21:51.997Z,100.00
2022-12-14T00:24:22.877Z,100.00
2022-12-14T00:26:53.460Z,100.00
2022-12-14T00:29:21.785Z,100.00
2022-12-14T00:31:51.205Z,100.00
2022-12-14T00:34:19.732Z,100.00
2022-12-14T00:36:48.121Z,100.00
2022-12-14T00:39:17.079Z,100.00
2022-12-14T00:41:45.438Z,100.00
2022-12-14T00:44:15.512Z,100.00
2022-12-14T00:46:43.784Z,100.00
2022-12-14T00:49:12.302Z,100.00
2022-12-14T00:51:40.502Z,100.00
2022-12-14T00:54:08.772Z,99.95
2022-12-14T00:56:37.065Z,100.00
2022-12-14T00:59:05.209Z,100.00
2022-12-14T01:01:34.989Z,100.00
2022-12-14T01:04:17.255Z,99.32
2022-12-14T01:06:48.649Z,100.00
2022-12-14T01:09:18.677Z,99.75
2022-12-14T01:11:47.340Z,100.00
2022-12-14T01:14:18.686Z,99.46
2022-12-14T01:16:48.326Z,98.34
2022-12-14T01:19:17.181Z,99.47
2022-12-14T01:21:45.621Z,98.98
2022-12-14T01:24:13.959Z,98.25
2022-12-14T01:26:42.172Z,98.45
2022-12-14T01:29:14.464Z,99.45
2022-12-14T01:31:45.061Z,98.32
2022-12-14T01:34:18.691Z,98.89
2022-12-14T01:36:46.979Z,98.28
2022-12-14T01:39:16.684Z,97.92
2022-12-14T01:41:47.516Z,97.81
2022-12-14T01:44:57.415Z,98.23
2022-12-14T01:47:30.020Z,96.80
2022-12-14T01:50:02.758Z,97.38
2022-12-14T01:52:36.789Z,97.87
2022-12-14T01:55:08.074Z,97.12
2022-12-14T01:57:39.464Z,97.86
2022-12-14T02:00:11.116Z,98.95
2022-12-14T02:02:40.071Z,98.33
2022-12-14T02:05:11.493Z,96.50
2022-12-14T02:07:40.876Z,97.43
2022-12-14T02:10:09.732Z,97.18
2022-12-14T02:12:42.947Z,97.25
2022-12-14T02:15:12.166Z,96.67
2022-12-14T02:17:40.678Z,96.27
2022-12-14T02:20:11.441Z,97.48
2022-12-14T02:23:06.246Z,98.32
2022-12-14T02:26:12.903Z,97.47
2022-12-14T02:29:15.577Z,97.45
2022-12-14T02:31:48.921Z,97.40
2022-12-14T02:34:25.291Z,97.95
2022-12-14T02:36:59.142Z,97.68
2022-12-14T02:39:34.208Z,97.01
2022-12-14T02:42:09.576Z,98.25
2022-12-14T02:44:48.219Z,96.92
2022-12-14T02:47:19.694Z,97.81
2022-12-14T02:49:59.362Z,98.85
2022-12-14T02:52:34.526Z,99.24
2022-12-14T02:55:05.383Z,98.27
2022-12-14T02:57:37.675Z,98.89
2022-12-14T03:00:08.874Z,97.81
2022-12-14T03:02:42.098Z,98.58
2022-12-14T03:05:11.373Z,98.88
2022-12-14T03:07:44.110Z,97.31
2022-12-14T03:10:27.104Z,97.62
2022-12-14T03:12:58.412Z,98.38
2022-12-14T03:15:30.048Z,98.01
2022-12-14T03:18:01.347Z,98.54
2022-12-14T03:20:32.296Z,98.28
2022-12-14T03:23:03.087Z,98.19
2022-12-14T03:25:33.977Z,96.79
2022-12-14T03:28:07.104Z,96.55
2022-12-14T03:30:59.452Z,97.79
2022-12-14T03:33:31.064Z,96.66
2022-12-14T03:36:06.484Z,97.70
2022-12-14T03:38:37.665Z,97.85
2022-12-14T03:41:13.851Z,97.92
2022-12-14T03:43:50.139Z,96.13
2022-12-14T03:46:26.606Z,97.01
2022-12-14T03:48:57.450Z,97.25
2022-12-14T03:51:32.199Z,96.70
2022-12-14T03:54:06.933Z,96.89
2022-12-14T03:56:40.323Z,96.32
2022-12-14T03:59:12.414Z,95.98
2022-12-14T04:01:46.707Z,94.98
2022-12-14T04:04:20.245Z,95.01
2022-12-14T04:06:51.649Z,96.05
2022-12-14T04:09:26.124Z,95.84
2022-12-14T04:12:16.895Z,94.10
2022-12-14T04:15:05.265Z,94.29
2022-12-14T04:17:55.497Z,94.84
2022-12-14T04:20:27.142Z,96.16
2022-12-14T04:23:02.932Z,95.93
2022-12-14T04:25:55.402Z,94.20
2022-12-14T04:28:42.643Z,95.61
2022-12-14T04:31:12.592Z,95.24
2022-12-14T04:33:49.548Z,97.06
2022-12-14T04:36:22.248Z,95.46
2022-12-14T04:38:53.423Z,95.83
2022-12-14T04:41:24.625Z,95.20
2022-12-14T04:43:55.734Z,95.45
2022-12-14T04:46:26.677Z,95.73
2022-12-14T04:49:04.788Z,95.80
2022-12-14T04:51:36.668Z,94.26
2022-12-14T04:54:10.213Z,94.76
2022-12-14T04:56:42.945Z,95.85
2022-12-14T04:59:11.302Z,96.36
2022-12-14T05:01:49.020Z,96.36
2022-12-14T05:04:25.620Z,95.39
2022-12-14T05:07:02.257Z,95.67
2022-12-14T05:09:33.201Z,95.52
2022-12-14T05:12:06.462Z,94.90
2022-12-14T05:14:36.228Z,95.20
2022-12-14T05:17:08.783Z,94.77
2022-12-14T05:19:48.641Z,95.07
2022-12-14T05:22:18.569Z,94.96
2022-12-14T05:24:46.807Z,95.53
2022-12-14T05:27:15.187Z,95.73
2022-12-14T05:29:43.450Z,95.43
2022-12-14T05:32:12.718Z,94.77
2022-12-14T05:34:42.362Z,96.08
2022-12-14T05:37:17.744Z,95.30
2022-12-14T05:39:46.572Z,96.94
2022-12-14T05:42:14.886Z,96.04
2022-12-14T05:44:43.148Z,96.31
2022-12-14T05:47:11.356Z,96.35
2022-12-14T05:49:41.729Z,95.96
2022-12-14T05:52:10.085Z,95.83
2022-12-14T05:54:38.273Z,96.97
2022-12-14T05:57:07.165Z,96.75
2022-12-14T05:59:35.500Z,97.10
2022-12-14T06:02:04.075Z,97.03
2022-12-14T06:04:33.043Z,96.92
2022-12-14T06:07:02.881Z,98.19
2022-12-14T06:09:31.056Z,98.07
2022-12-14T06:11:59.373Z,96.46
2022-12-14T06:14:27.734Z,96.55
2022-12-14T06:16:56.542Z,97.67
2022-12-14T06:19:24.833Z,96.22
2022-12-14T06:21:53.656Z,97.07
2022-12-14T06:24:23.334Z,96.31
2022-12-14T06:26:51.795Z,95.88
2022-12-14T06:29:22.713Z,96.52
2022-12-14T06:31:51.195Z,96.25
2022-12-14T06:34:24.797Z,95.24
2022-12-14T06:36:56.405Z,95.40
2022-12-14T06:39:26.087Z,95.78
2022-12-14T06:41:54.329Z,95.58
2022-12-14T06:44:22.713Z,96.28
2022-12-14T06:46:51.151Z,96.50
2022-12-14T06:49:19.436Z,95.84
2022-12-14T06:51:47.704Z,95.67
2022-12-14T06:54:17.164Z,95.78
2022-12-14T06:56:48.028Z,95.93
2022-12-14T06:59:17.059Z,96.72
2022-12-14T07:01:46.135Z,95.51
2022-12-14T07:04:21.545Z,96.34
2022-12-14T07:06:50.100Z,96.43
2022-12-14T07:09:18.380Z,95.36
2022-12-14T07:11:48.049Z,96.79
2022-12-14T07:14:18.044Z,95.55
2022-12-14T07:16:48.705Z,95.49
2022-12-14T07:19:17.698Z,95.13
2022-12-14T07:21:45.904Z,96.28
2022-12-14T07:24:14.144Z,95.82
2022-12-14T07:26:42.618Z,95.59
2022-12-14T07:29:14.778Z,96.39
2022-12-14T07:31:43.123Z,95.79
2022-12-14T07:34:14.027Z,95.10
2022-12-14T07:36:43.409Z,95.43
2022-12-14T07:39:13.822Z,96.35
2022-12-14T07:41:42.353Z,94.28
2022-12-14T07:44:12.372Z,94.98
2022-12-14T07:46:41.315Z,93.93
2022-12-14T07:49:12.380Z,94.18
2022-12-14T07:51:42.448Z,94.76
2022-12-14T07:54:12.733Z,94.07
2022-12-14T07:56:44.196Z,94.24
2022-12-14T07:59:16.562Z,94.44
2022-12-14T08:01:45.420Z,93.96
2022-12-14T08:04:17.446Z,92.96
2022-12-14T08:06:46.983Z,94.18
2022-12-14T08:09:15.766Z,93.36
2022-12-14T08:11:44.036Z,93.55
2022-12-14T08:14:17.262Z,92.45
2022-12-14T08:16:45.740Z,91.72
2022-12-14T08:19:15.056Z,93.04
2022-12-14T08:21:43.498Z,93.51
2022-12-14T08:24:12.543Z,92.08
2022-12-14T08:26:41.182Z,93.86
2022-12-14T08:29:12.528Z,94.68
2022-12-14T08:31:42.649Z,94.83
2022-12-14T08:34:11.035Z,94.22
2022-12-14T08:36:39.300Z,94.38
2022-12-14T08:39:09.388Z,93.13
2022-12-14T08:41:37.630Z,93.34
2022-12-14T08:44:06.291Z,92.09
2022-12-14T08:46:37.677Z,92.23
2022-12-14T08:49:07.489Z,92.09
2022-12-14T08:51:37.551Z,92.83
2022-12-14T08:54:05.844Z,93.60
2022-12-14T08:56:34.145Z,93.28
2022-12-14T08:59:02.429Z,93.29
2022-12-14T09:01:34.410Z,92.81
2022-12-14T09:04:05.260Z,93.09
2022-12-14T09:06:37.032Z,93.40
2022-12-14T09:09:09.187Z,93.21
2022-12-14T09:11:41.768Z,91.92
2022-12-14T09:14:10.961Z,91.71
2022-12-14T09:16:40.273Z,92.36
2022-12-14T09:19:08.623Z,92.75
2022-12-14T09:21:38.751Z,91.95
2022-12-14T09:24:07.382Z,91.95
2022-12-14T09:26:35.572Z,93.02
2022-12-14T09:29:04.095Z,92.06
2022-12-14T09:31:32.584Z,92.63
2022-12-14T09:34:00.861Z,93.77
2022-12-14T09:36:30.286Z,93.42
2022-12-14T09:38:59.939Z,92.73
2022-12-14T09:41:44.042Z,93.99
2022-12-14T09:44:19.786Z,92.35
2022-12-14T09:46:55.906Z,92.18
2022-12-14T09:49:28.637Z,92.31
2022-12-14T09:52:00.206Z,92.62
2022-12-14T09:54:31.474Z,92.75
2022-12-14T09:57:03.234Z,92.72
2022-12-14T09:59:32.139Z,92.57
2022-12-14T10:02:29.875Z,91.94
2022-12-14T10:05:03.474Z,91.38
2022-12-14T10:07:37.332Z,91.35
2022-12-14T10:10:15.724Z,92.70
2022-12-14T10:12:52.600Z,93.25
2022-12-14T10:15:29.241Z,93.14
2022-12-14T10:18:49.248Z,93.70
2022-12-14T10:21:12.865Z,93.76
2022-12-14T10:23:41.552Z,92.76
2022-12-14T10:26:17.335Z,93.03
2022-12-14T10:28:48.600Z,92.99
2022-12-14T10:31:27.716Z,92.55
2022-12-14T10:33:59.738Z,92.26
2022-12-14T10:36:31.244Z,91.13
2022-12-14T10:39:00.937Z,90.29
2022-12-14T10:41:35.128Z,90.54
2022-12-14T10:44:11.516Z,90.74
2022-12-14T10:46:46.914Z,90.03
2022-12-14T10:49:18.771Z,90.04
2022-12-14T10:51:50.089Z,91.06
2022-12-14T10:54:25.891Z,91.38
2022-12-14T10:56:55.671Z,91.73
2022-12-14T10:59:39.783Z,90.44
2022-12-14T11:02:17.325Z,90.19
2022-12-14T11:04:50.461Z,90.31
2022-12-14T11:07:20.661Z,90.16
2022-12-14T11:09:49.178Z,89.82
2022-12-14T11:12:22.322Z,90.62
2022-12-14T11:14:55.888Z,90.60
2022-12-14T11:17:45.444Z,91.89
2022-12-14T11:20:20.808Z,91.50
2022-12-14T11:22:50.393Z,92.12
2022-12-14T11:25:36.032Z,92.69
2022-12-14T11:28:18.067Z,93.53
2022-12-14T11:30:55.563Z,91.98
2022-12-14T11:33:24.349Z,91.89
2022-12-14T11:35:53.196Z,92.48
2022-12-14T11:38:21.590Z,92.39
2022-12-14T11:40:50.250Z,93.19
2022-12-14T11:43:26.683Z,92.51
2022-12-14T11:45:56.773Z,92.82
2022-12-14T11:48:26.317Z,93.00
2022-12-14T11:50:56.380Z,92.56
2022-12-14T11:53:24.906Z,93.09
2022-12-14T11:55:58.061Z,92.52
2022-12-14T11:58:30.457Z,92.49
2022-12-14T12:01:01.282Z,92.17
2022-12-14T12:03:32.294Z,92.34
2022-12-14T12:06:07.423Z,92.70
2022-12-14T12:08:37.876Z,93.02
2022-12-14T12:11:15.973Z,92.77
2022-12-14T12:13:47.967Z,92.78
2022-12-14T12:16:18.652Z,93.71
2022-12-14T12:18:49.270Z,92.79
2022-12-14T12:21:19.068Z,93.17
2022-12-14T12:23:49.702Z,92.72
2022-12-14T12:26:21.411Z,92.52
2022-12-14T12:28:56.958Z,92.24
2022-12-14T12:31:27.888Z,92.06
2022-12-14T12:34:00.622Z,91.87
2022-12-14T12:36:30.826Z,92.50
2022-12-14T12:39:07.067Z,91.34
2022-12-14T12:41:49.392Z,91.48
2022-12-14T12:44:33.980Z,91.84
2022-12-14T12:47:32.309Z,91.03
2022-12-14T12:50:00.801Z,91.17
2022-12-14T12:52:31.826Z,90.85
2022-12-14T12:55:03.198Z,91.46
2022-12-14T12:57:37.024Z,91.43
2022-12-14T13:00:08.169Z,91.99
2022-12-14T13:02:38.499Z,91.61
2022-12-14T13:05:44.970Z,91.09
2022-12-14T13:08:07.844Z,91.50
2022-12-14T13:10:42.057Z,92.04
2022-12-14T13:13:20.388Z,91.77
2022-12-14T13:15:52.825Z,92.11
2022-12-14T13:18:56.004Z,92.41
2022-12-14T13:21:20.695Z,92.61
2022-12-14T13:23:49.014Z,92.87
2022-12-14T13:26:56.787Z,92.94
2022-12-14T13:29:30.922Z,92.18
2022-12-14T13:32:07.303Z,91.95
2022-12-14T13:34:43.115Z,92.15
2022-12-14T13:37:38.253Z,92.11
2022-12-14T13:40:43.244Z,92.82
2022-12-14T13:43:26.941Z,92.76
2022-12-14T13:45:56.364Z,93.28
2022-12-14T13:48:28.085Z,93.90
2022-12-14T13:51:01.841Z,93.70
2022-12-14T13:53:32.753Z,93.49
2022-12-14T13:56:02.631Z,93.06
2022-12-14T13:58:35.379Z,92.90
2022-12-14T14:01:07.632Z,93.23
2022-12-14T14:03:48.548Z,92.30
2022-12-14T14:06:20.511Z,92.94
2022-12-14T14:08:50.753Z,92.87
2022-12-14T14:11:47.385Z,92.54
2022-12-14T14:14:30.702Z,92.37
2022-12-14T14:17:01.320Z,92.75
2022-12-14T14:19:36.878Z,93.39
2022-12-14T14:22:23.728Z,92.24
2022-12-14T14:24:56.361Z,92.77
2022-12-14T14:27:26.514Z,92.70
2022-12-14T14:29:55.949Z,92.99
2022-12-14T14:32:40.064Z,92.27
2022-12-14T14:35:27.357Z,92.42
2022-12-14T14:37:59.531Z,92.55
2022-12-14T14:40:51.406Z,93.17
2022-12-14T14:43:26.916Z,92.58
2022-12-14T14:45:56.437Z,92.63
2022-12-14T14:48:35.435Z,93.85
2022-12-14T14:51:08.109Z,92.83
2022-12-14T14:53:37.347Z,92.57
2022-12-14T14:56:40.036Z,93.09
2022-12-14T14:59:39.560Z,92.11
2022-12-14T15:02:25.710Z,93.16
2022-12-14T15:04:57.206Z,93.67
2022-12-14T15:07:30.515Z,93.19
2022-12-14T15:10:06.782Z,92.51
2022-12-14T15:12:38.834Z,93.07
2022-12-14T15:15:17.563Z,93.46
2022-12-14T15:17:45.898Z,93.62
2022-12-14T15:20:23.328Z,93.59
2022-12-14T15:22:53.872Z,93.69
2022-12-14T15:25:26.017Z,93.16
2022-12-14T15:27:54.882Z,93.05
2022-12-14T15:30:25.200Z,93.35
2022-12-14T15:32:56.961Z,93.25
2022-12-14T15:35:26.914Z,93.47
2022-12-14T15:38:00.431Z,93.49
2022-12-14T15:40:31.203Z,93.61
2022-12-14T15:43:01.311Z,93.55
2022-12-14T15:45:31.339Z,92.92
2022-12-14T15:48:13.980Z,93.21
2022-12-14T15:50:44.360Z,92.93
2022-12-14T15:53:15.514Z,92.72
2022-12-14T15:55:44.631Z,92.78
2022-12-14T15:58:17.345Z,93.48
2022-12-14T16:00:47.436Z,94.46
2022-12-14T16:03:22.903Z,94.60
2022-12-14T16:05:51.349Z,94.56
2022-12-14T16:08:21.269Z,94.51
2022-12-14T16:10:52.338Z,94.77
2022-12-14T16:13:25.053Z,93.80
2022-12-14T16:15:54.644Z,94.23
2022-12-14T16:18:23.073Z,94.31
2022-12-14T16:20:58.097Z,93.38
2022-12-14T16:23:31.868Z,93.50
2022-12-14T16:26:03.078Z,93.65
2022-12-14T16:28:32.923Z,93.91
2022-12-14T16:31:03.901Z,94.18
2022-12-14T16:33:34.604Z,93.66
2022-12-14T16:36:06.405Z,93.99
2022-12-14T16:38:40.784Z,92.93
2022-12-14T16:41:09.288Z,93.79
2022-12-14T16:43:39.107Z,93.88
2022-12-14T16:46:18.773Z,93.76
2022-12-14T16:48:49.999Z,93.57
2022-12-14T16:54:31.202Z,93.74
2022-12-14T16:57:04.336Z,94.31
2022-12-14T16:59:40.075Z,94.19
2022-12-14T17:02:25.291Z,94.23
2022-12-14T17:04:53.923Z,93.55
2022-12-14T17:07:24.453Z,94.62
2022-12-14T17:09:56.553Z,94.00
2022-12-14T17:12:25.909Z,94.13
2022-12-14T17:14:54.272Z,94.13
2022-12-14T17:17:26.325Z,93.97
2022-12-14T17:19:55.185Z,94.01
2022-12-14T17:22:26.966Z,93.99
2022-12-14T17:24:56.761Z,94.72
2022-12-14T17:27:26.925Z,94.84
2022-12-14T17:29:57.362Z,94.02
2022-12-14T17:32:29.892Z,94.33
2022-12-14T17:34:58.423Z,94.77
2022-12-14T17:37:30.958Z,94.60
2022-12-14T17:40:04.835Z,94.48
2022-12-14T17:42:33.156Z,94.29
2022-12-14T17:45:01.744Z,94.19
2022-12-14T17:47:32.044Z,94.70
2022-12-14T17:50:00.336Z,93.95
2022-12-14T17:52:34.331Z,94.20
2022-12-14T17:55:04.145Z,94.42
2022-12-14T17:57:32.492Z,94.70
2022-12-14T18:00:14.559Z,94.38
2022-12-14T18:02:45.709Z,94.80
2022-12-14T18:05:19.781Z,95.24
2022-12-14T18:07:49.972Z,94.89
2022-12-14T18:10:20.168Z,94.46
2022-12-14T18:12:48.933Z,94.38
2022-12-14T18:15:18.945Z,94.69
2022-12-14T18:17:49.324Z,94.77
2022-12-14T18:20:20.134Z,95.07
2022-12-14T18:22:52.073Z,94.30
2022-12-14T18:25:30.265Z,94.27
2022-12-14T18:27:59.236Z,93.79
2022-12-14T18:30:28.555Z,94.31
2022-12-14T18:32:59.481Z,92.83
2022-12-14T18:35:29.244Z,93.48
2022-12-14T18:37:57.487Z,93.40
2022-12-14T18:40:29.384Z,92.27
2022-12-14T18:42:58.165Z,92.73
2022-12-14T18:45:27.771Z,92.57
2022-12-14T18:47:56.745Z,92.75
2022-12-14T18:50:25.329Z,92.42
2022-12-14T18:52:53.603Z,93.23
2022-12-14T18:55:24.002Z,92.45
2022-12-14T18:57:55.757Z,92.38
2022-12-14T19:00:25.917Z,92.77
2022-12-14T19:02:54.502Z,92.98
2022-12-14T19:05:26.248Z,92.64
2022-12-14T19:07:55.002Z,92.31
2022-12-14T19:10:24.999Z,92.61
2022-12-14T19:12:54.993Z,92.85
2022-12-14T19:15:24.946Z,93.29
2022-12-14T19:17:53.571Z,93.22
2022-12-14T19:20:23.247Z,92.87
2022-12-14T19:22:52.037Z,93.50
2022-12-14T19:25:21.268Z,92.96
2022-12-14T19:30:44.065Z,93.80
2022-12-14T19:33:12.629Z,93.82
2022-12-14T19:35:41.767Z,92.84
2022-12-14T19:38:13.620Z,92.75
2022-12-14T19:40:42.534Z,92.94
2022-12-14T19:43:10.996Z,92.17
2022-12-14T19:45:41.386Z,92.13
2022-12-14T19:48:13.356Z,93.30
2022-12-14T19:50:42.113Z,92.80
2022-12-14T19:53:10.942Z,92.47
2022-12-14T19:55:39.274Z,93.10
2022-12-14T19:58:07.661Z,92.74
2022-12-14T20:00:35.890Z,92.55
2022-12-14T20:03:05.882Z,92.12
2022-12-14T20:05:34.339Z,92.24
2022-12-14T20:08:02.541Z,92.08
2022-12-14T20:10:30.811Z,92.06
2022-12-14T20:12:59.119Z,91.78
2022-12-14T20:15:27.402Z,91.38
2022-12-14T20:17:55.642Z,90.91
2022-12-14T20:20:26.836Z,91.16
2022-12-14T20:22:55.795Z,91.32
2022-12-14T20:25:24.940Z,90.91
2022-12-14T20:27:53.304Z,90.10
2022-12-14T20:30:21.634Z,91.18
2022-12-14T20:32:49.944Z,90.87
2022-12-14T20:35:18.976Z,90.90
2022-12-14T20:37:48.722Z,90.58
2022-12-14T20:40:17.126Z,91.47
2022-12-14T20:42:45.478Z,91.58
2022-12-14T20:45:13.828Z,91.08
2022-12-14T20:47:42.094Z,91.43
2022-12-14T20:50:10.424Z,91.92
2022-12-14T20:52:38.633Z,91.64
2022-12-14T20:55:09.169Z,92.30
2022-12-14T20:57:37.478Z,92.08
2022-12-14T21:00:06.999Z,91.17
2022-12-14T21:02:35.358Z,91.76
2022-12-14T21:05:06.413Z,91.86
2022-12-14T21:07:34.870Z,92.07
2022-12-14T21:10:03.120Z,91.60
2022-12-14T21:12:33.517Z,91.75
2022-12-14T21:15:02.046Z,92.40
2022-12-14T21:17:32.519Z,91.78
2022-12-14T21:20:00.946Z,92.76
2022-12-14T21:22:30.539Z,91.66
2022-12-14T21:25:04.121Z,91.59
2022-12-14T21:27:36.109Z,92.00
2022-12-14T21:30:05.977Z,92.06
2022-12-14T21:32:37.265Z,92.00
2022-12-14T21:35:06.603Z,92.83
2022-12-14T21:37:34.929Z,92.78
2022-12-14T21:40:04.039Z,92.44
2022-12-14T21:42:31.472Z,91.49
2022-12-14T21:45:01.068Z,91.61
2022-12-14T21:47:30.473Z,92.94
2022-12-14T21:49:58.852Z,92.04
2022-12-14T21:52:28.565Z,91.91
2022-12-14T21:54:58.848Z,92.86
2022-12-14T21:57:50.028Z,92.75
2022-12-14T22:00:21.888Z,92.88
2022-12-14T22:02:50.258Z,92.96
2022-12-14T22:05:18.727Z,94.05
2022-12-14T22:07:47.146Z,93.49
2022-12-14T22:10:19.944Z,93.47
2022-12-14T22:12:51.182Z,94.67
2022-12-14T22:15:20.779Z,93.31
2022-12-14T22:17:50.663Z,93.08
2022-12-14T22:20:19.050Z,91.99
2022-12-14T22:22:47.265Z,92.67
2022-12-14T22:25:16.066Z,92.58
2022-12-14T22:27:50.136Z,92.73
2022-12-14T22:30:18.703Z,92.41
2022-12-14T22:32:49.161Z,92.13
2022-12-14T22:35:18.270Z,91.92
2022-12-14T22:37:46.436Z,92.42
2022-12-14T22:40:14.772Z,91.54
2022-12-14T22:42:43.013Z,93.47
2022-12-14T22:45:11.585Z,93.97
2022-12-14T22:47:40.025Z,93.99
2022-12-14T22:50:10.667Z,93.87
2022-12-14T22:52:38.948Z,94.37
2022-12-14T22:55:07.913Z,94.48
2022-12-14T22:57:41.552Z,94.40
2022-12-14T23:00:12.604Z,94.75
2022-12-14T23:02:44.165Z,94.07
2022-12-14T23:05:17.885Z,93.50
2022-12-14T23:07:46.134Z,93.57
2022-12-14T23:10:31.831Z,93.07
2022-12-14T23:13:17.384Z,92.68
2022-12-14T23:16:02.995Z,92.37
2022-12-14T23:18:48.485Z,91.91
2022-12-14T23:21:35.872Z,91.55
2022-12-14T23:24:21.501Z,91.33
2022-12-14T23:27:09.724Z,91.60
2022-12-14T23:29:55.797Z,91.90
2022-12-14T23:32:41.518Z,91.52
2022-12-14T23:35:26.887Z,92.09
2022-12-14T23:38:22.708Z,93.24
2022-12-14T23:41:08.142Z,93.30
2022-12-14T23:43:55.452Z,92.79
2022-12-14T23:46:41.111Z,92.25
2022-12-14T23:49:27.280Z,93.06
2022-12-14T23:52:12.866Z,92.51
2022-12-14T23:54:59.964Z,92.70
2022-12-14T23:57:45.593Z,91.89
